sensor_id;sensor_type;location;lat;lon;timestamp;P1;durP1;ratioP1;P2;durP2;ratioP2
69730;SDS011;56996;48.138;11.538;2022-10-13T00:01:11;32.50;;;14.00;;
69730;SDS011;56996;48.138;11.538;2022-10-13T00:03:41;33.30;;;14.40;;
69730;SDS011;56996;48.138;11.538;2022-10-13T00:06:18;32.10;;;14.20;;
69730;SDS011;56996;48.138;11.538;2022-10-13T00:08:47;31.40;;;14.40;;
69730;SDS011;56996;48.138;11.538;2022-10-13T00:13:43;29.80;;;13.80;;
69730;SDS011;56996;48.138;11.538;2022-10-13T00:16:12;27.00;;;13.10;;
69730;SDS011;56996;48.138;11.538;2022-10-13T00:18:40;29.50;;;13.00;;
69730;SDS011;56996;48.138;11.538;2022-10-13T00:21:16;29.60;;;13.40;;
69730;SDS011;56996;48.138;11.538;2022-10-13T00:23:46;29.40;;;13.00;;
69730;SDS011;56996;48.138;11.538;2022-10-13T00:26:18;29.70;;;12.90;;
69730;SDS011;56996;48.138;11.538;2022-10-13T00:28:46;29.00;;;13.80;;
69730;SDS011;56996;48.138;11.538;2022-10-13T00:31:21;26.40;;;12.30;;
69730;SDS011;56996;48.138;11.538;2022-10-13T00:33:47;26.30;;;12.20;;
69730;SDS011;56996;48.138;11.538;2022-10-13T00:36:18;25.40;;;11.50;;
69730;SDS011;56996;48.138;11.538;2022-10-13T00:38:45;25.90;;;11.40;;
69730;SDS011;56996;48.138;11.538;2022-10-13T00:41:12;23.70;;;11.90;;
69730;SDS011;56996;48.138;11.538;2022-10-13T00:43:56;23.50;;;11.20;;
69730;SDS011;56996;48.138;11.538;2022-10-13T00:46:31;23.60;;;10.60;;
69730;SDS011;56996;48.138;11.538;2022-10-13T00:49:09;22.80;;;10.80;;
69730;SDS011;56996;48.138;11.538;2022-10-13T00:51:44;22.10;;;10.80;;
69730;SDS011;56996;48.138;11.538;2022-10-13T00:54:16;22.90;;;10.90;;
69730;SDS011;56996;48.138;11.538;2022-10-13T00:56:44;20.60;;;10.50;;
69730;SDS011;56996;48.138;11.538;2022-10-13T00:59:21;21.20;;;10.20;;
69730;SDS011;56996;48.138;11.538;2022-10-13T01:01:52;23.30;;;11.00;;
69730;SDS011;56996;48.138;11.538;2022-10-13T01:04:22;20.80;;;10.10;;
69730;SDS011;56996;48.138;11.538;2022-10-13T01:06:51;23.70;;;10.80;;
69730;SDS011;56996;48.138;11.538;2022-10-13T01:09:19;21.40;;;10.10;;
69730;SDS011;56996;48.138;11.538;2022-10-13T01:15:12;20.10;;;9.00;;
69730;SDS011;56996;48.138;11.538;2022-10-13T01:20:50;19.90;;;9.60;;
69730;SDS011;56996;48.138;11.538;2022-10-13T01:24:02;20.90;;;9.40;;
69730;SDS011;56996;48.138;11.538;2022-10-13T01:30:03;19.60;;;8.50;;
69730;SDS011;56996;48.138;11.538;2022-10-13T01:33:04;18.70;;;8.60;;
69730;SDS011;56996;48.138;11.538;2022-10-13T01:38:51;20.00;;;8.60;;
69730;SDS011;56996;48.138;11.538;2022-10-13T01:41:37;18.10;;;9.10;;
69730;SDS011;56996;48.138;11.538;2022-10-13T01:44:14;15.80;;;7.40;;
69730;SDS011;56996;48.138;11.538;2022-10-13T01:46:51;15.80;;;7.90;;
69730;SDS011;56996;48.138;11.538;2022-10-13T01:49:22;16.60;;;8.10;;
69730;SDS011;56996;48.138;11.538;2022-10-13T01:51:53;17.50;;;7.70;;
69730;SDS011;56996;48.138;11.538;2022-10-13T01:54:20;18.30;;;8.40;;
69730;SDS011;56996;48.138;11.538;2022-10-13T01:56:55;17.80;;;8.00;;
69730;SDS011;56996;48.138;11.538;2022-10-13T01:59:24;18.60;;;8.50;;
69730;SDS011;56996;48.138;11.538;2022-10-13T02:02:18;17.90;;;8.00;;
69730;SDS011;56996;48.138;11.538;2022-10-13T02:08:06;20.60;;;9.00;;
69730;SDS011;56996;48.138;11.538;2022-10-13T02:10:46;18.60;;;8.70;;
69730;SDS011;56996;48.138;11.538;2022-10-13T02:13:20;19.50;;;8.40;;
69730;SDS011;56996;48.138;11.538;2022-10-13T02:15:55;20.00;;;9.40;;
69730;SDS011;56996;48.138;11.538;2022-10-13T02:18:28;17.00;;;7.60;;
69730;SDS011;56996;48.138;11.538;2022-10-13T02:20:58;17.20;;;8.20;;
69730;SDS011;56996;48.138;11.538;2022-10-13T02:23:25;17.60;;;8.20;;
69730;SDS011;56996;48.138;11.538;2022-10-13T02:25:54;14.90;;;6.50;;
69730;SDS011;56996;48.138;11.538;2022-10-13T02:28:22;18.30;;;7.50;;
69730;SDS011;56996;48.138;11.538;2022-10-13T02:30:49;18.00;;;8.50;;
69730;SDS011;56996;48.138;11.538;2022-10-13T02:33:16;18.40;;;8.40;;
69730;SDS011;56996;48.138;11.538;2022-10-13T02:35:44;18.70;;;7.40;;
69730;SDS011;56996;48.138;11.538;2022-10-13T02:38:10;18.80;;;8.80;;
69730;SDS011;56996;48.138;11.538;2022-10-13T02:40:37;15.70;;;7.20;;
69730;SDS011;56996;48.138;11.538;2022-10-13T02:43:04;14.50;;;7.20;;
69730;SDS011;56996;48.138;11.538;2022-10-13T02:45:31;15.10;;;7.40;;
69730;SDS011;56996;48.138;11.538;2022-10-13T02:47:57;15.50;;;7.40;;
69730;SDS011;56996;48.138;11.538;2022-10-13T02:50:24;14.60;;;6.70;;
69730;SDS011;56996;48.138;11.538;2022-10-13T02:52:51;14.90;;;6.90;;
69730;SDS011;56996;48.138;11.538;2022-10-13T02:55:18;13.80;;;6.90;;
69730;SDS011;56996;48.138;11.538;2022-10-13T02:57:46;16.50;;;7.70;;
69730;SDS011;56996;48.138;11.538;2022-10-13T03:00:13;14.90;;;6.80;;
69730;SDS011;56996;48.138;11.538;2022-10-13T03:02:40;13.60;;;6.20;;
69730;SDS011;56996;48.138;11.538;2022-10-13T03:05:08;13.90;;;6.40;;
69730;SDS011;56996;48.138;11.538;2022-10-13T03:07:35;15.30;;;6.60;;
69730;SDS011;56996;48.138;11.538;2022-10-13T03:10:03;15.10;;;7.20;;
69730;SDS011;56996;48.138;11.538;2022-10-13T03:12:30;15.50;;;6.50;;
69730;SDS011;56996;48.138;11.538;2022-10-13T03:14:57;14.20;;;6.40;;
69730;SDS011;56996;48.138;11.538;2022-10-13T03:17:24;18.10;;;7.00;;
69730;SDS011;56996;48.138;11.538;2022-10-13T03:19:51;13.10;;;5.90;;
69730;SDS011;56996;48.138;11.538;2022-10-13T03:22:17;13.60;;;6.70;;
69730;SDS011;56996;48.138;11.538;2022-10-13T03:24:45;13.30;;;6.20;;
69730;SDS011;56996;48.138;11.538;2022-10-13T03:27:11;14.70;;;6.00;;
69730;SDS011;56996;48.138;11.538;2022-10-13T03:29:39;13.20;;;5.90;;
69730;SDS011;56996;48.138;11.538;2022-10-13T03:32:05;15.20;;;6.60;;
69730;SDS011;56996;48.138;11.538;2022-10-13T03:34:32;16.10;;;6.80;;
69730;SDS011;56996;48.138;11.538;2022-10-13T03:36:58;14.40;;;6.50;;
69730;SDS011;56996;48.138;11.538;2022-10-13T03:39:30;14.70;;;6.50;;
69730;SDS011;56996;48.138;11.538;2022-10-13T03:41:57;14.20;;;6.20;;
69730;SDS011;56996;48.138;11.538;2022-10-13T03:44:23;13.90;;;6.60;;
69730;SDS011;56996;48.138;11.538;2022-10-13T03:46:50;16.00;;;6.90;;
69730;SDS011;56996;48.138;11.538;2022-10-13T03:49:17;14.70;;;6.80;;
69730;SDS011;56996;48.138;11.538;2022-10-13T03:51:44;13.60;;;6.10;;
69730;SDS011;56996;48.138;11.538;2022-10-13T03:54:11;13.60;;;6.20;;
69730;SDS011;56996;48.138;11.538;2022-10-13T03:56:39;14.80;;;6.10;;
69730;SDS011;56996;48.138;11.538;2022-10-13T03:59:06;14.20;;;5.80;;
69730;SDS011;56996;48.138;11.538;2022-10-13T04:01:33;14.10;;;6.40;;
69730;SDS011;56996;48.138;11.538;2022-10-13T04:04:00;13.90;;;6.10;;
69730;SDS011;56996;48.138;11.538;2022-10-13T04:06:28;12.40;;;5.80;;
69730;SDS011;56996;48.138;11.538;2022-10-13T04:08:55;14.40;;;6.40;;
69730;SDS011;56996;48.138;11.538;2022-10-13T04:11:22;12.90;;;5.90;;
69730;SDS011;56996;48.138;11.538;2022-10-13T04:13:50;13.40;;;6.40;;
69730;SDS011;56996;48.138;11.538;2022-10-13T04:16:23;14.60;;;6.40;;
69730;SDS011;56996;48.138;11.538;2022-10-13T04:18:59;14.50;;;6.60;;
69730;SDS011;56996;48.138;11.538;2022-10-13T04:21:28;12.80;;;6.10;;
69730;SDS011;56996;48.138;11.538;2022-10-13T04:23:58;14.90;;;6.20;;
69730;SDS011;56996;48.138;11.538;2022-10-13T04:26:27;12.40;;;5.90;;
69730;SDS011;56996;48.138;11.538;2022-10-13T04:28:55;15.00;;;6.40;;
69730;SDS011;56996;48.138;11.538;2022-10-13T04:31:23;15.10;;;6.30;;
69730;SDS011;56996;48.138;11.538;2022-10-13T04:33:50;15.60;;;7.10;;
69730;SDS011;56996;48.138;11.538;2022-10-13T04:36:17;16.50;;;7.00;;
69730;SDS011;56996;48.138;11.538;2022-10-13T04:38:46;14.60;;;7.30;;
69730;SDS011;56996;48.138;11.538;2022-10-13T04:41:15;15.40;;;6.80;;
69730;SDS011;56996;48.138;11.538;2022-10-13T04:43:45;15.80;;;7.20;;
69730;SDS011;56996;48.138;11.538;2022-10-13T04:46:14;16.70;;;7.10;;
69730;SDS011;56996;48.138;11.538;2022-10-13T04:48:47;13.40;;;5.90;;
69730;SDS011;56996;48.138;11.538;2022-10-13T04:51:20;15.70;;;7.10;;
69730;SDS011;56996;48.138;11.538;2022-10-13T04:53:54;16.70;;;7.30;;
69730;SDS011;56996;48.138;11.538;2022-10-13T04:56:24;13.60;;;6.10;;
69730;SDS011;56996;48.138;11.538;2022-10-13T04:58:52;16.80;;;7.20;;
69730;SDS011;56996;48.138;11.538;2022-10-13T05:01:21;15.20;;;7.10;;
69730;SDS011;56996;48.138;11.538;2022-10-13T05:03:51;16.40;;;7.80;;
69730;SDS011;56996;48.138;11.538;2022-10-13T05:06:24;14.20;;;6.60;;
69730;SDS011;56996;48.138;11.538;2022-10-13T05:08:56;15.60;;;7.40;;
69730;SDS011;56996;48.138;11.538;2022-10-13T05:11:24;15.60;;;7.80;;
69730;SDS011;56996;48.138;11.538;2022-10-13T05:13:52;16.60;;;8.20;;
69730;SDS011;56996;48.138;11.538;2022-10-13T05:16:20;16.70;;;7.60;;
69730;SDS011;56996;48.138;11.538;2022-10-13T05:18:49;15.70;;;7.90;;
69730;SDS011;56996;48.138;11.538;2022-10-13T05:21:20;18.70;;;7.70;;
69730;SDS011;56996;48.138;11.538;2022-10-13T05:23:48;16.40;;;7.50;;
69730;SDS011;56996;48.138;11.538;2022-10-13T05:26:19;19.90;;;9.90;;
69730;SDS011;56996;48.138;11.538;2022-10-13T05:28:46;17.80;;;8.60;;
69730;SDS011;56996;48.138;11.538;2022-10-13T05:31:21;16.10;;;7.70;;
69730;SDS011;56996;48.138;11.538;2022-10-13T05:33:50;15.50;;;7.90;;
69730;SDS011;56996;48.138;11.538;2022-10-13T05:36:26;16.70;;;8.10;;
69730;SDS011;56996;48.138;11.538;2022-10-13T05:38:58;17.50;;;8.40;;
69730;SDS011;56996;48.138;11.538;2022-10-13T05:41:28;17.00;;;8.00;;
69730;SDS011;56996;48.138;11.538;2022-10-13T05:43:57;17.00;;;8.30;;
69730;SDS011;56996;48.138;11.538;2022-10-13T05:46:26;15.90;;;8.20;;
69730;SDS011;56996;48.138;11.538;2022-10-13T05:48:53;34.30;;;16.90;;
69730;SDS011;56996;48.138;11.538;2022-10-13T05:51:24;20.10;;;8.70;;
69730;SDS011;56996;48.138;11.538;2022-10-13T05:54:01;17.80;;;8.20;;
69730;SDS011;56996;48.138;11.538;2022-10-13T05:56:36;19.10;;;8.70;;
69730;SDS011;56996;48.138;11.538;2022-10-13T05:59:07;17.40;;;8.30;;
69730;SDS011;56996;48.138;11.538;2022-10-13T06:01:38;17.40;;;8.10;;
69730;SDS011;56996;48.138;11.538;2022-10-13T06:04:10;24.40;;;12.50;;
69730;SDS011;56996;48.138;11.538;2022-10-13T06:06:44;17.50;;;8.90;;
69730;SDS011;56996;48.138;11.538;2022-10-13T06:09:12;16.10;;;7.70;;
69730;SDS011;56996;48.138;11.538;2022-10-13T06:11:40;15.90;;;7.50;;
69730;SDS011;56996;48.138;11.538;2022-10-13T06:14:06;17.90;;;8.00;;
69730;SDS011;56996;48.138;11.538;2022-10-13T06:16:34;17.10;;;8.00;;
69730;SDS011;56996;48.138;11.538;2022-10-13T06:19:03;16.10;;;7.10;;
69730;SDS011;56996;48.138;11.538;2022-10-13T06:21:33;18.90;;;8.50;;
69730;SDS011;56996;48.138;11.538;2022-10-13T06:24:01;17.20;;;8.30;;
69730;SDS011;56996;48.138;11.538;2022-10-13T06:26:28;17.00;;;7.90;;
69730;SDS011;56996;48.138;11.538;2022-10-13T06:28:55;17.90;;;8.50;;
69730;SDS011;56996;48.138;11.538;2022-10-13T06:31:26;18.10;;;9.20;;
69730;SDS011;56996;48.138;11.538;2022-10-13T06:33:52;17.40;;;8.60;;
69730;SDS011;56996;48.138;11.538;2022-10-13T06:36:19;17.60;;;7.80;;
69730;SDS011;56996;48.138;11.538;2022-10-13T06:38:46;17.40;;;8.10;;
69730;SDS011;56996;48.138;11.538;2022-10-13T06:41:13;17.30;;;8.60;;
69730;SDS011;56996;48.138;11.538;2022-10-13T06:43:40;15.70;;;8.10;;
69730;SDS011;56996;48.138;11.538;2022-10-13T06:46:09;16.40;;;8.20;;
69730;SDS011;56996;48.138;11.538;2022-10-13T06:48:37;33.20;;;17.80;;
69730;SDS011;56996;48.138;11.538;2022-10-13T06:51:07;18.30;;;9.30;;
69730;SDS011;56996;48.138;11.538;2022-10-13T06:53:35;19.00;;;9.00;;
69730;SDS011;56996;48.138;11.538;2022-10-13T06:56:03;19.30;;;9.70;;
69730;SDS011;56996;48.138;11.538;2022-10-13T06:58:31;18.10;;;9.20;;
69730;SDS011;56996;48.138;11.538;2022-10-13T07:00:58;20.80;;;9.40;;
69730;SDS011;56996;48.138;11.538;2022-10-13T07:03:24;20.60;;;10.00;;
69730;SDS011;56996;48.138;11.538;2022-10-13T07:05:51;25.60;;;12.40;;
69730;SDS011;56996;48.138;11.538;2022-10-13T07:08:19;20.80;;;10.00;;
69730;SDS011;56996;48.138;11.538;2022-10-13T07:10:46;18.00;;;9.30;;
69730;SDS011;56996;48.138;11.538;2022-10-13T07:13:14;20.60;;;10.40;;
69730;SDS011;56996;48.138;11.538;2022-10-13T07:15:40;19.50;;;9.80;;
69730;SDS011;56996;48.138;11.538;2022-10-13T07:18:07;20.20;;;9.30;;
69730;SDS011;56996;48.138;11.538;2022-10-13T07:20:34;20.90;;;9.10;;
69730;SDS011;56996;48.138;11.538;2022-10-13T07:23:01;19.90;;;9.20;;
69730;SDS011;56996;48.138;11.538;2022-10-13T07:25:28;19.60;;;9.40;;
69730;SDS011;56996;48.138;11.538;2022-10-13T07:27:57;21.50;;;10.50;;
69730;SDS011;56996;48.138;11.538;2022-10-13T07:30:24;21.10;;;10.20;;
69730;SDS011;56996;48.138;11.538;2022-10-13T07:32:51;28.80;;;16.10;;
69730;SDS011;56996;48.138;11.538;2022-10-13T07:35:18;21.60;;;10.70;;
69730;SDS011;56996;48.138;11.538;2022-10-13T07:37:45;22.10;;;11.10;;
69730;SDS011;56996;48.138;11.538;2022-10-13T07:40:12;20.80;;;11.20;;
69730;SDS011;56996;48.138;11.538;2022-10-13T07:42:38;23.40;;;12.50;;
69730;SDS011;56996;48.138;11.538;2022-10-13T07:45:05;21.00;;;10.80;;
69730;SDS011;56996;48.138;11.538;2022-10-13T07:47:32;24.00;;;10.20;;
69730;SDS011;56996;48.138;11.538;2022-10-13T07:49:59;21.20;;;10.20;;
69730;SDS011;56996;48.138;11.538;2022-10-13T07:52:26;38.50;;;21.20;;
69730;SDS011;56996;48.138;11.538;2022-10-13T07:54:52;22.20;;;10.60;;
69730;SDS011;56996;48.138;11.538;2022-10-13T07:57:19;20.00;;;8.90;;
69730;SDS011;56996;48.138;11.538;2022-10-13T07:59:45;21.00;;;9.60;;
69730;SDS011;56996;48.138;11.538;2022-10-13T08:02:14;19.30;;;9.60;;
69730;SDS011;56996;48.138;11.538;2022-10-13T08:04:40;20.90;;;9.80;;
69730;SDS011;56996;48.138;11.538;2022-10-13T08:07:07;20.20;;;10.10;;
69730;SDS011;56996;48.138;11.538;2022-10-13T08:09:34;20.90;;;10.70;;
69730;SDS011;56996;48.138;11.538;2022-10-13T08:12:01;20.80;;;9.90;;
69730;SDS011;56996;48.138;11.538;2022-10-13T08:14:29;22.20;;;10.60;;
69730;SDS011;56996;48.138;11.538;2022-10-13T08:16:56;21.60;;;10.30;;
69730;SDS011;56996;48.138;11.538;2022-10-13T08:19:23;22.00;;;10.10;;
69730;SDS011;56996;48.138;11.538;2022-10-13T08:21:52;19.90;;;9.50;;
69730;SDS011;56996;48.138;11.538;2022-10-13T08:24:26;19.90;;;9.40;;
69730;SDS011;56996;48.138;11.538;2022-10-13T08:26:52;19.10;;;9.00;;
69730;SDS011;56996;48.138;11.538;2022-10-13T08:29:20;19.60;;;9.50;;
69730;SDS011;56996;48.138;11.538;2022-10-13T08:31:51;32.20;;;16.50;;
69730;SDS011;56996;48.138;11.538;2022-10-13T08:34:19;21.90;;;9.70;;
69730;SDS011;56996;48.138;11.538;2022-10-13T08:36:47;18.20;;;9.50;;
69730;SDS011;56996;48.138;11.538;2022-10-13T08:39:19;19.80;;;10.10;;
69730;SDS011;56996;48.138;11.538;2022-10-13T08:41:46;20.80;;;8.90;;
69730;SDS011;56996;48.138;11.538;2022-10-13T08:47:22;18.20;;;8.30;;
69730;SDS011;56996;48.138;11.538;2022-10-13T08:49:59;16.60;;;7.80;;
69730;SDS011;56996;48.138;11.538;2022-10-13T08:55:29;18.30;;;7.90;;
69730;SDS011;56996;48.138;11.538;2022-10-13T08:58:00;16.20;;;7.80;;
69730;SDS011;56996;48.138;11.538;2022-10-13T09:00:28;19.30;;;7.70;;
69730;SDS011;56996;48.138;11.538;2022-10-13T09:03:28;18.00;;;8.10;;
69730;SDS011;56996;48.138;11.538;2022-10-13T09:06:04;15.40;;;8.00;;
69730;SDS011;56996;48.138;11.538;2022-10-13T09:08:44;18.90;;;8.50;;
69730;SDS011;56996;48.138;11.538;2022-10-13T09:11:15;15.10;;;7.50;;
69730;SDS011;56996;48.138;11.538;2022-10-13T09:13:42;21.20;;;10.80;;
69730;SDS011;56996;48.138;11.538;2022-10-13T09:16:09;16.30;;;8.30;;
69730;SDS011;56996;48.138;11.538;2022-10-13T09:18:36;15.00;;;7.10;;
69730;SDS011;56996;48.138;11.538;2022-10-13T09:21:20;17.10;;;7.60;;
69730;SDS011;56996;48.138;11.538;2022-10-13T09:23:50;16.80;;;7.50;;
69730;SDS011;56996;48.138;11.538;2022-10-13T09:26:23;17.60;;;7.40;;
69730;SDS011;56996;48.138;11.538;2022-10-13T09:28:51;16.30;;;8.60;;
69730;SDS011;56996;48.138;11.538;2022-10-13T09:31:26;15.90;;;7.50;;
69730;SDS011;56996;48.138;11.538;2022-10-13T09:34:13;14.00;;;6.30;;
69730;SDS011;56996;48.138;11.538;2022-10-13T09:37:04;13.20;;;6.30;;
69730;SDS011;56996;48.138;11.538;2022-10-13T09:39:32;14.30;;;6.50;;
69730;SDS011;56996;48.138;11.538;2022-10-13T09:42:19;15.40;;;6.80;;
69730;SDS011;56996;48.138;11.538;2022-10-13T09:44:55;13.30;;;5.70;;
69730;SDS011;56996;48.138;11.538;2022-10-13T09:47:25;12.90;;;5.70;;
69730;SDS011;56996;48.138;11.538;2022-10-13T09:50:18;13.70;;;5.70;;
69730;SDS011;56996;48.138;11.538;2022-10-13T09:52:48;12.70;;;5.40;;
69730;SDS011;56996;48.138;11.538;2022-10-13T09:55:33;13.00;;;5.00;;
69730;SDS011;56996;48.138;11.538;2022-10-13T09:58:25;13.80;;;5.70;;
69730;SDS011;56996;48.138;11.538;2022-10-13T10:00:54;12.10;;;5.70;;
69730;SDS011;56996;48.138;11.538;2022-10-13T10:03:30;17.90;;;6.30;;
69730;SDS011;56996;48.138;11.538;2022-10-13T10:06:04;15.10;;;6.60;;
69730;SDS011;56996;48.138;11.538;2022-10-13T10:14:24;12.60;;;5.20;;
69730;SDS011;56996;48.138;11.538;2022-10-13T10:22:46;12.30;;;5.80;;
69730;SDS011;56996;48.138;11.538;2022-10-13T10:25:34;15.70;;;7.20;;
69730;SDS011;56996;48.138;11.538;2022-10-13T10:30:46;12.50;;;6.50;;
69730;SDS011;56996;48.138;11.538;2022-10-13T10:33:19;11.80;;;5.90;;
69730;SDS011;56996;48.138;11.538;2022-10-13T10:35:56;14.70;;;6.40;;
69730;SDS011;56996;48.138;11.538;2022-10-13T10:44:38;20.00;;;12.10;;
69730;SDS011;56996;48.138;11.538;2022-10-13T10:47:35;13.80;;;7.00;;
69730;SDS011;56996;48.138;11.538;2022-10-13T10:50:05;14.00;;;7.40;;
69730;SDS011;56996;48.138;11.538;2022-10-13T10:55:34;11.20;;;5.60;;
69730;SDS011;56996;48.138;11.538;2022-10-13T11:04:51;10.70;;;5.30;;
69730;SDS011;56996;48.138;11.538;2022-10-13T11:06:55;13.10;;;6.30;;
69730;SDS011;56996;48.138;11.538;2022-10-13T11:17:30;14.80;;;7.70;;
69730;SDS011;56996;48.138;11.538;2022-10-13T11:19:58;13.40;;;6.10;;
69730;SDS011;56996;48.138;11.538;2022-10-13T11:22:29;15.80;;;6.00;;
69730;SDS011;56996;48.138;11.538;2022-10-13T11:25:03;12.50;;;5.30;;
69730;SDS011;56996;48.138;11.538;2022-10-13T11:30:53;12.40;;;6.10;;
69730;SDS011;56996;48.138;11.538;2022-10-13T11:45:02;12.30;;;5.80;;
69730;SDS011;56996;48.138;11.538;2022-10-13T11:48:03;13.90;;;5.50;;
69730;SDS011;56996;48.138;11.538;2022-10-13T11:56:55;12.50;;;6.10;;
69730;SDS011;56996;48.138;11.538;2022-10-13T12:04:40;11.80;;;5.40;;
69730;SDS011;56996;48.138;11.538;2022-10-13T12:07:13;10.60;;;5.30;;
69730;SDS011;56996;48.138;11.538;2022-10-13T12:09:48;14.50;;;5.70;;
69730;SDS011;56996;48.138;11.538;2022-10-13T12:12:18;11.80;;;5.90;;
69730;SDS011;56996;48.138;11.538;2022-10-13T12:14:52;13.00;;;5.60;;
69730;SDS011;56996;48.138;11.538;2022-10-13T12:17:30;14.40;;;7.20;;
69730;SDS011;56996;48.138;11.538;2022-10-13T12:20:19;14.10;;;7.20;;
69730;SDS011;56996;48.138;11.538;2022-10-13T12:22:49;12.60;;;6.30;;
69730;SDS011;56996;48.138;11.538;2022-10-13T12:25:18;12.00;;;5.70;;
69730;SDS011;56996;48.138;11.538;2022-10-13T12:27:49;14.70;;;6.40;;
69730;SDS011;56996;48.138;11.538;2022-10-13T12:30:29;13.00;;;6.20;;
69730;SDS011;56996;48.138;11.538;2022-10-13T12:33:02;14.70;;;6.20;;
69730;SDS011;56996;48.138;11.538;2022-10-13T12:35:32;14.40;;;6.80;;
69730;SDS011;56996;48.138;11.538;2022-10-13T12:38:05;16.40;;;6.00;;
69730;SDS011;56996;48.138;11.538;2022-10-13T12:40:33;16.30;;;9.20;;
69730;SDS011;56996;48.138;11.538;2022-10-13T12:43:02;11.30;;;5.60;;
69730;SDS011;56996;48.138;11.538;2022-10-13T12:45:33;12.40;;;5.70;;
69730;SDS011;56996;48.138;11.538;2022-10-13T12:48:00;14.70;;;6.50;;
69730;SDS011;56996;48.138;11.538;2022-10-13T12:53:09;8.50;;;3.40;;
69730;SDS011;56996;48.138;11.538;2022-10-13T12:55:47;10.40;;;3.90;;
69730;SDS011;56996;48.138;11.538;2022-10-13T12:58:28;11.60;;;4.90;;
69730;SDS011;56996;48.138;11.538;2022-10-13T13:03:30;14.00;;;6.60;;
69730;SDS011;56996;48.138;11.538;2022-10-13T13:06:30;12.00;;;5.80;;
69730;SDS011;56996;48.138;11.538;2022-10-13T13:14:42;14.20;;;6.30;;
69730;SDS011;56996;48.138;11.538;2022-10-13T13:19:48;11.50;;;5.60;;
69730;SDS011;56996;48.138;11.538;2022-10-13T13:22:17;14.00;;;6.40;;
69730;SDS011;56996;48.138;11.538;2022-10-13T13:24:44;16.60;;;5.70;;
69730;SDS011;56996;48.138;11.538;2022-10-13T13:27:17;11.80;;;5.50;;
69730;SDS011;56996;48.138;11.538;2022-10-13T13:29:46;13.90;;;5.60;;
69730;SDS011;56996;48.138;11.538;2022-10-13T13:32:15;13.70;;;5.50;;
69730;SDS011;56996;48.138;11.538;2022-10-13T13:34:46;11.90;;;4.90;;
69730;SDS011;56996;48.138;11.538;2022-10-13T13:37:29;11.80;;;5.20;;
69730;SDS011;56996;48.138;11.538;2022-10-13T13:39:58;12.60;;;5.50;;
69730;SDS011;56996;48.138;11.538;2022-10-13T13:42:26;13.30;;;5.50;;
69730;SDS011;56996;48.138;11.538;2022-10-13T13:44:54;11.70;;;5.10;;
69730;SDS011;56996;48.138;11.538;2022-10-13T13:47:23;11.40;;;5.00;;
69730;SDS011;56996;48.138;11.538;2022-10-13T13:49:52;11.70;;;5.20;;
69730;SDS011;56996;48.138;11.538;2022-10-13T13:52:20;11.80;;;5.40;;
69730;SDS011;56996;48.138;11.538;2022-10-13T13:54:48;11.10;;;5.00;;
69730;SDS011;56996;48.138;11.538;2022-10-13T13:57:16;12.20;;;5.30;;
69730;SDS011;56996;48.138;11.538;2022-10-13T13:59:44;29.20;;;19.30;;
69730;SDS011;56996;48.138;11.538;2022-10-13T14:02:20;11.90;;;5.30;;
69730;SDS011;56996;48.138;11.538;2022-10-13T14:04:47;12.70;;;5.50;;
69730;SDS011;56996;48.138;11.538;2022-10-13T14:07:15;11.90;;;5.10;;
69730;SDS011;56996;48.138;11.538;2022-10-13T14:09:44;11.30;;;4.90;;
69730;SDS011;56996;48.138;11.538;2022-10-13T14:12:11;12.90;;;5.50;;
69730;SDS011;56996;48.138;11.538;2022-10-13T14:14:38;10.80;;;5.20;;
69730;SDS011;56996;48.138;11.538;2022-10-13T14:17:08;11.80;;;5.60;;
69730;SDS011;56996;48.138;11.538;2022-10-13T14:19:34;11.30;;;5.10;;
69730;SDS011;56996;48.138;11.538;2022-10-13T14:22:01;13.80;;;5.40;;
69730;SDS011;56996;48.138;11.538;2022-10-13T14:24:34;10.40;;;4.70;;
69730;SDS011;56996;48.138;11.538;2022-10-13T14:27:03;9.90;;;4.90;;
69730;SDS011;56996;48.138;11.538;2022-10-13T14:29:29;11.70;;;4.90;;
69730;SDS011;56996;48.138;11.538;2022-10-13T14:31:56;11.30;;;6.20;;
69730;SDS011;56996;48.138;11.538;2022-10-13T14:34:23;11.70;;;5.30;;
69730;SDS011;56996;48.138;11.538;2022-10-13T14:36:49;11.40;;;4.60;;
69730;SDS011;56996;48.138;11.538;2022-10-13T14:39:16;14.10;;;5.70;;
69730;SDS011;56996;48.138;11.538;2022-10-13T14:41:42;12.60;;;5.80;;
69730;SDS011;56996;48.138;11.538;2022-10-13T14:44:10;19.80;;;11.10;;
69730;SDS011;56996;48.138;11.538;2022-10-13T14:46:43;13.30;;;6.60;;
69730;SDS011;56996;48.138;11.538;2022-10-13T14:49:10;11.90;;;5.20;;
69730;SDS011;56996;48.138;11.538;2022-10-13T14:51:40;11.00;;;5.30;;
69730;SDS011;56996;48.138;11.538;2022-10-13T14:54:07;12.90;;;5.70;;
69730;SDS011;56996;48.138;11.538;2022-10-13T14:56:34;12.80;;;5.90;;
69730;SDS011;56996;48.138;11.538;2022-10-13T14:59:03;14.10;;;7.00;;
69730;SDS011;56996;48.138;11.538;2022-10-13T15:01:38;17.60;;;7.20;;
69730;SDS011;56996;48.138;11.538;2022-10-13T15:04:07;10.40;;;4.40;;
69730;SDS011;56996;48.138;11.538;2022-10-13T15:06:38;13.00;;;6.10;;
69730;SDS011;56996;48.138;11.538;2022-10-13T15:09:07;10.40;;;5.30;;
69730;SDS011;56996;48.138;11.538;2022-10-13T15:11:39;11.90;;;4.60;;
69730;SDS011;56996;48.138;11.538;2022-10-13T15:14:06;12.90;;;5.10;;
69730;SDS011;56996;48.138;11.538;2022-10-13T15:16:33;12.10;;;5.80;;
69730;SDS011;56996;48.138;11.538;2022-10-13T15:19:00;12.80;;;5.30;;
69730;SDS011;56996;48.138;11.538;2022-10-13T15:21:26;9.60;;;4.50;;
69730;SDS011;56996;48.138;11.538;2022-10-13T15:23:54;11.70;;;5.40;;
69730;SDS011;56996;48.138;11.538;2022-10-13T15:26:22;13.20;;;5.00;;
69730;SDS011;56996;48.138;11.538;2022-10-13T15:28:51;11.10;;;4.70;;
69730;SDS011;56996;48.138;11.538;2022-10-13T15:31:21;22.70;;;12.80;;
69730;SDS011;56996;48.138;11.538;2022-10-13T15:33:51;11.10;;;5.40;;
69730;SDS011;56996;48.138;11.538;2022-10-13T15:36:20;11.00;;;4.70;;
69730;SDS011;56996;48.138;11.538;2022-10-13T15:38:48;13.40;;;5.20;;
69730;SDS011;56996;48.138;11.538;2022-10-13T15:41:18;14.10;;;5.00;;
69730;SDS011;56996;48.138;11.538;2022-10-13T15:43:48;11.60;;;5.30;;
69730;SDS011;56996;48.138;11.538;2022-10-13T15:46:16;9.80;;;4.60;;
69730;SDS011;56996;48.138;11.538;2022-10-13T15:48:52;11.80;;;5.10;;
69730;SDS011;56996;48.138;11.538;2022-10-13T15:51:22;11.90;;;4.90;;
69730;SDS011;56996;48.138;11.538;2022-10-13T15:53:52;16.50;;;7.10;;
69730;SDS011;56996;48.138;11.538;2022-10-13T15:56:21;9.60;;;4.80;;
69730;SDS011;56996;48.138;11.538;2022-10-13T15:58:48;13.10;;;5.10;;
69730;SDS011;56996;48.138;11.538;2022-10-13T16:01:15;12.90;;;5.50;;
69730;SDS011;56996;48.138;11.538;2022-10-13T16:03:43;10.80;;;5.00;;
69730;SDS011;56996;48.138;11.538;2022-10-13T16:06:11;11.70;;;5.00;;
69730;SDS011;56996;48.138;11.538;2022-10-13T16:08:40;14.60;;;5.30;;
69730;SDS011;56996;48.138;11.538;2022-10-13T16:11:14;9.90;;;4.50;;
69730;SDS011;56996;48.138;11.538;2022-10-13T16:13:47;10.10;;;3.80;;
69730;SDS011;56996;48.138;11.538;2022-10-13T16:16:15;13.10;;;5.30;;
69730;SDS011;56996;48.138;11.538;2022-10-13T16:18:43;12.20;;;5.50;;
69730;SDS011;56996;48.138;11.538;2022-10-13T16:23:48;11.00;;;5.60;;